sensor_id;sensor_type;location;lat;lon;timestamp;P1;durP1;ratioP1;P2;durP2;ratioP2
65244;SDS011;51846;48.692;2.382;2022-09-13T00:01:12;5.80;;;1.80;;
65244;SDS011;51846;48.692;2.382;2022-09-13T00:20:08;3.95;;;1.67;;
65244;SDS011;51846;48.692;2.382;2022-09-13T00:22:33;3.97;;;1.85;;
65244;SDS011;51846;48.692;2.382;2022-09-13T00:24:59;4.15;;;1.65;;
65244;SDS011;51846;48.692;2.382;2022-09-13T00:27:25;4.40;;;1.77;;
65244;SDS011;51846;48.692;2.382;2022-09-13T00:29:50;4.63;;;1.70;;
65244;SDS011;51846;48.692;2.382;2022-09-13T00:32:16;2.40;;;1.60;;
65244;SDS011;51846;48.692;2.382;2022-09-13T00:34:41;2.55;;;1.50;;
65244;SDS011;51846;48.692;2.382;2022-09-13T00:37:07;3.33;;;1.60;;
65244;SDS011;51846;48.692;2.382;2022-09-13T00:39:32;4.40;;;1.83;;
65244;SDS011;51846;48.692;2.382;2022-09-13T00:41:58;2.55;;;1.52;;
65244;SDS011;51846;48.692;2.382;2022-09-13T00:47:23;3.40;;;1.83;;
65244;SDS011;51846;48.692;2.382;2022-09-13T00:52:54;6.75;;;2.03;;
65244;SDS011;51846;48.692;2.382;2022-09-13T00:55:29;4.68;;;2.00;;
65244;SDS011;51846;48.692;2.382;2022-09-13T00:58:00;12.90;;;2.00;;
65244;SDS011;51846;48.692;2.382;2022-09-13T01:00:29;6.15;;;1.77;;
65244;SDS011;51846;48.692;2.382;2022-09-13T01:02:56;5.60;;;1.90;;
65244;SDS011;51846;48.692;2.382;2022-09-13T01:05:25;4.57;;;1.90;;
65244;SDS011;51846;48.692;2.382;2022-09-13T01:07:54;4.78;;;2.05;;
65244;SDS011;51846;48.692;2.382;2022-09-13T01:10:21;4.47;;;2.05;;
65244;SDS011;51846;48.692;2.382;2022-09-13T01:12:55;4.63;;;2.05;;
65244;SDS011;51846;48.692;2.382;2022-09-13T01:15:35;7.78;;;2.33;;
65244;SDS011;51846;48.692;2.382;2022-09-13T01:18:00;22.73;;;2.75;;
65244;SDS011;51846;48.692;2.382;2022-09-13T01:20:30;7.22;;;2.40;;
65244;SDS011;51846;48.692;2.382;2022-09-13T01:45:21;3.33;;;1.70;;
65244;SDS011;51846;48.692;2.382;2022-09-13T01:48:01;3.88;;;2.03;;
65244;SDS011;51846;48.692;2.382;2022-09-13T01:51:08;7.07;;;2.10;;
65244;SDS011;51846;48.692;2.382;2022-09-13T01:56:25;3.92;;;2.00;;
65244;SDS011;51846;48.692;2.382;2022-09-13T01:58:56;3.38;;;1.80;;
65244;SDS011;51846;48.692;2.382;2022-09-13T02:01:35;3.88;;;2.00;;
65244;SDS011;51846;48.692;2.382;2022-09-13T02:04:09;4.75;;;2.10;;
65244;SDS011;51846;48.692;2.382;2022-09-13T02:09:26;6.63;;;2.00;;
65244;SDS011;51846;48.692;2.382;2022-09-13T02:11:59;7.03;;;2.20;;
65244;SDS011;51846;48.692;2.382;2022-09-13T02:14:31;4.93;;;2.30;;
65244;SDS011;51846;48.692;2.382;2022-09-13T02:17:02;4.50;;;1.95;;
65244;SDS011;51846;48.692;2.382;2022-09-13T02:21:57;5.07;;;2.30;;
65244;SDS011;51846;48.692;2.382;2022-09-13T02:24:47;4.50;;;2.40;;
65244;SDS011;51846;48.692;2.382;2022-09-13T02:27:13;8.15;;;2.50;;
65244;SDS011;51846;48.692;2.382;2022-09-13T02:29:43;6.25;;;2.42;;
65244;SDS011;51846;48.692;2.382;2022-09-13T02:32:14;5.75;;;2.40;;
65244;SDS011;51846;48.692;2.382;2022-09-13T02:34:50;9.10;;;2.33;;
65244;SDS011;51846;48.692;2.382;2022-09-13T02:37:21;10.57;;;2.60;;
65244;SDS011;51846;48.692;2.382;2022-09-13T02:39:50;6.38;;;2.33;;
65244;SDS011;51846;48.692;2.382;2022-09-13T02:42:30;6.10;;;2.47;;
65244;SDS011;51846;48.692;2.382;2022-09-13T02:45:09;7.72;;;2.50;;
65244;SDS011;51846;48.692;2.382;2022-09-13T02:50:41;6.82;;;2.55;;
65244;SDS011;51846;48.692;2.382;2022-09-13T02:53:21;9.65;;;2.92;;
65244;SDS011;51846;48.692;2.382;2022-09-13T02:56:06;9.55;;;3.20;;
65244;SDS011;51846;48.692;2.382;2022-09-13T02:59:00;5.65;;;2.50;;
65244;SDS011;51846;48.692;2.382;2022-09-13T03:01:36;6.13;;;2.30;;
65244;SDS011;51846;48.692;2.382;2022-09-13T03:04:03;5.03;;;2.60;;
65244;SDS011;51846;48.692;2.382;2022-09-13T03:06:28;6.63;;;2.33;;
65244;SDS011;51846;48.692;2.382;2022-09-13T03:08:55;8.20;;;2.67;;
65244;SDS011;51846;48.692;2.382;2022-09-13T03:14:36;7.80;;;2.40;;
65244;SDS011;51846;48.692;2.382;2022-09-13T03:28:37;7.63;;;2.53;;
65244;SDS011;51846;48.692;2.382;2022-09-13T03:31:35;8.55;;;2.55;;
65244;SDS011;51846;48.692;2.382;2022-09-13T03:34:14;5.45;;;2.70;;
65244;SDS011;51846;48.692;2.382;2022-09-13T03:39:47;6.45;;;2.22;;
65244;SDS011;51846;48.692;2.382;2022-09-13T03:44:49;5.85;;;2.67;;
65244;SDS011;51846;48.692;2.382;2022-09-13T03:47:17;8.15;;;2.60;;
65244;SDS011;51846;48.692;2.382;2022-09-13T03:49:45;4.78;;;2.33;;
65244;SDS011;51846;48.692;2.382;2022-09-13T03:52:11;4.32;;;2.63;;
65244;SDS011;51846;48.692;2.382;2022-09-13T03:54:37;3.67;;;2.30;;
65244;SDS011;51846;48.692;2.382;2022-09-13T03:57:07;11.77;;;2.40;;
65244;SDS011;51846;48.692;2.382;2022-09-13T03:59:34;5.50;;;2.40;;
65244;SDS011;51846;48.692;2.382;2022-09-13T04:02:02;4.97;;;2.50;;
65244;SDS011;51846;48.692;2.382;2022-09-13T04:04:28;7.63;;;2.40;;
65244;SDS011;51846;48.692;2.382;2022-09-13T04:06:53;7.72;;;2.47;;
65244;SDS011;51846;48.692;2.382;2022-09-13T04:09:21;4.35;;;2.30;;
65244;SDS011;51846;48.692;2.382;2022-09-13T04:11:47;5.68;;;2.10;;
65244;SDS011;51846;48.692;2.382;2022-09-13T04:14:12;5.05;;;2.30;;
65244;SDS011;51846;48.692;2.382;2022-09-13T04:16:40;5.57;;;2.50;;
65244;SDS011;51846;48.692;2.382;2022-09-13T04:19:05;5.65;;;2.40;;
65244;SDS011;51846;48.692;2.382;2022-09-13T04:21:31;6.55;;;2.30;;
65244;SDS011;51846;48.692;2.382;2022-09-13T04:23:56;4.38;;;2.25;;
65244;SDS011;51846;48.692;2.382;2022-09-13T04:26:21;7.95;;;2.42;;
65244;SDS011;51846;48.692;2.382;2022-09-13T04:28:47;5.88;;;2.20;;
65244;SDS011;51846;48.692;2.382;2022-09-13T04:31:12;4.25;;;2.35;;
65244;SDS011;51846;48.692;2.382;2022-09-13T04:33:37;10.80;;;2.53;;
65244;SDS011;51846;48.692;2.382;2022-09-13T04:36:03;7.95;;;2.67;;
65244;SDS011;51846;48.692;2.382;2022-09-13T04:38:28;8.85;;;2.40;;
65244;SDS011;51846;48.692;2.382;2022-09-13T04:40:56;4.07;;;2.30;;
65244;SDS011;51846;48.692;2.382;2022-09-13T04:43:22;15.25;;;3.25;;
65244;SDS011;51846;48.692;2.382;2022-09-13T04:45:48;9.77;;;2.58;;
65244;SDS011;51846;48.692;2.382;2022-09-13T04:48:14;6.15;;;2.53;;
65244;SDS011;51846;48.692;2.382;2022-09-13T04:50:40;9.90;;;3.20;;
65244;SDS011;51846;48.692;2.382;2022-09-13T04:53:05;7.55;;;3.00;;
65244;SDS011;51846;48.692;2.382;2022-09-13T04:55:30;6.15;;;2.60;;
65244;SDS011;51846;48.692;2.382;2022-09-13T04:57:56;7.63;;;2.70;;
65244;SDS011;51846;48.692;2.382;2022-09-13T05:00:21;14.50;;;3.13;;
65244;SDS011;51846;48.692;2.382;2022-09-13T05:02:47;24.40;;;3.08;;
65244;SDS011;51846;48.692;2.382;2022-09-13T05:05:12;11.82;;;2.60;;
65244;SDS011;51846;48.692;2.382;2022-09-13T05:07:37;20.08;;;3.20;;
65244;SDS011;51846;48.692;2.382;2022-09-13T05:10:03;13.90;;;3.15;;
65244;SDS011;51846;48.692;2.382;2022-09-13T05:12:29;6.72;;;2.92;;
65244;SDS011;51846;48.692;2.382;2022-09-13T05:14:55;9.88;;;3.30;;
65244;SDS011;51846;48.692;2.382;2022-09-13T05:17:20;12.88;;;3.00;;
65244;SDS011;51846;48.692;2.382;2022-09-13T05:19:45;23.35;;;3.10;;
65244;SDS011;51846;48.692;2.382;2022-09-13T05:22:11;42.28;;;4.50;;
65244;SDS011;51846;48.692;2.382;2022-09-13T05:24:37;17.73;;;3.42;;
65244;SDS011;51846;48.692;2.382;2022-09-13T05:27:02;31.25;;;3.45;;
65244;SDS011;51846;48.692;2.382;2022-09-13T05:29:28;33.47;;;3.22;;
65244;SDS011;51846;48.692;2.382;2022-09-13T05:31:53;28.02;;;3.33;;
65244;SDS011;51846;48.692;2.382;2022-09-13T05:34:18;23.00;;;3.28;;
65244;SDS011;51846;48.692;2.382;2022-09-13T05:36:44;7.93;;;2.50;;
65244;SDS011;51846;48.692;2.382;2022-09-13T05:39:14;7.35;;;3.00;;
65244;SDS011;51846;48.692;2.382;2022-09-13T05:41:42;6.15;;;2.38;;
65244;SDS011;51846;48.692;2.382;2022-09-13T05:44:07;6.80;;;2.40;;
65244;SDS011;51846;48.692;2.382;2022-09-13T05:46:33;9.15;;;2.90;;
65244;SDS011;51846;48.692;2.382;2022-09-13T05:48:58;4.95;;;2.17;;
65244;SDS011;51846;48.692;2.382;2022-09-13T05:51:24;6.70;;;2.20;;
65244;SDS011;51846;48.692;2.382;2022-09-13T05:53:50;8.88;;;2.40;;
65244;SDS011;51846;48.692;2.382;2022-09-13T05:56:18;10.45;;;2.30;;
65244;SDS011;51846;48.692;2.382;2022-09-13T05:58:50;6.50;;;2.25;;
65244;SDS011;51846;48.692;2.382;2022-09-13T06:01:18;6.35;;;2.15;;
65244;SDS011;51846;48.692;2.382;2022-09-13T06:03:46;7.13;;;2.40;;
65244;SDS011;51846;48.692;2.382;2022-09-13T06:06:12;6.10;;;2.45;;
65244;SDS011;51846;48.692;2.382;2022-09-13T06:08:38;8.10;;;2.83;;
65244;SDS011;51846;48.692;2.382;2022-09-13T06:11:04;8.70;;;3.45;;
65244;SDS011;51846;48.692;2.382;2022-09-13T06:13:31;6.75;;;2.92;;
65244;SDS011;51846;48.692;2.382;2022-09-13T06:15:57;6.78;;;3.00;;
65244;SDS011;51846;48.692;2.382;2022-09-13T06:18:24;7.20;;;3.15;;
65244;SDS011;51846;48.692;2.382;2022-09-13T06:20:50;7.63;;;3.20;;
65244;SDS011;51846;48.692;2.382;2022-09-13T06:23:21;11.50;;;3.13;;
65244;SDS011;51846;48.692;2.382;2022-09-13T06:25:46;5.55;;;3.08;;
65244;SDS011;51846;48.692;2.382;2022-09-13T06:28:14;7.75;;;2.60;;
65244;SDS011;51846;48.692;2.382;2022-09-13T06:30:40;6.55;;;2.90;;
65244;SDS011;51846;48.692;2.382;2022-09-13T06:33:05;7.05;;;2.50;;
65244;SDS011;51846;48.692;2.382;2022-09-13T06:35:30;8.80;;;2.70;;
65244;SDS011;51846;48.692;2.382;2022-09-13T06:37:56;8.13;;;2.70;;
65244;SDS011;51846;48.692;2.382;2022-09-13T06:40:22;13.20;;;2.88;;
65244;SDS011;51846;48.692;2.382;2022-09-13T06:42:48;8.02;;;2.90;;
65244;SDS011;51846;48.692;2.382;2022-09-13T06:45:14;10.70;;;2.78;;
65244;SDS011;51846;48.692;2.382;2022-09-13T06:47:39;8.88;;;2.80;;
65244;SDS011;51846;48.692;2.382;2022-09-13T06:50:05;11.80;;;3.33;;
65244;SDS011;51846;48.692;2.382;2022-09-13T06:52:31;10.32;;;3.22;;
65244;SDS011;51846;48.692;2.382;2022-09-13T06:54:57;12.23;;;3.00;;
65244;SDS011;51846;48.692;2.382;2022-09-13T06:57:22;11.32;;;3.15;;
65244;SDS011;51846;48.692;2.382;2022-09-13T06:59:48;15.07;;;3.20;;
65244;SDS011;51846;48.692;2.382;2022-09-13T07:02:13;19.48;;;3.10;;
65244;SDS011;51846;48.692;2.382;2022-09-13T07:04:39;9.93;;;3.08;;
65244;SDS011;51846;48.692;2.382;2022-09-13T07:07:04;8.45;;;2.92;;
65244;SDS011;51846;48.692;2.382;2022-09-13T07:09:29;7.53;;;3.20;;
65244;SDS011;51846;48.692;2.382;2022-09-13T07:11:55;11.65;;;3.28;;
65244;SDS011;51846;48.692;2.382;2022-09-13T07:14:24;12.20;;;3.17;;
65244;SDS011;51846;48.692;2.382;2022-09-13T07:16:51;10.02;;;3.25;;
65244;SDS011;51846;48.692;2.382;2022-09-13T07:19:18;10.80;;;3.20;;
65244;SDS011;51846;48.692;2.382;2022-09-13T07:21:48;11.45;;;3.65;;
65244;SDS011;51846;48.692;2.382;2022-09-13T07:24:15;18.40;;;4.00;;
65244;SDS011;51846;48.692;2.382;2022-09-13T07:26:41;10.77;;;3.42;;
65244;SDS011;51846;48.692;2.382;2022-09-13T07:29:07;13.15;;;3.88;;
65244;SDS011;51846;48.692;2.382;2022-09-13T07:31:36;12.55;;;3.17;;
65244;SDS011;51846;48.692;2.382;2022-09-13T07:34:05;9.68;;;2.85;;
65244;SDS011;51846;48.692;2.382;2022-09-13T07:36:32;9.32;;;2.97;;
65244;SDS011;51846;48.692;2.382;2022-09-13T07:38:59;13.85;;;2.80;;
65244;SDS011;51846;48.692;2.382;2022-09-13T07:41:26;10.27;;;2.58;;
65244;SDS011;51846;48.692;2.382;2022-09-13T07:43:53;10.43;;;2.80;;
65244;SDS011;51846;48.692;2.382;2022-09-13T07:46:20;9.07;;;2.45;;
65244;SDS011;51846;48.692;2.382;2022-09-13T07:48:51;11.63;;;2.50;;
65244;SDS011;51846;48.692;2.382;2022-09-13T07:51:19;8.48;;;2.45;;
65244;SDS011;51846;48.692;2.382;2022-09-13T07:53:46;7.60;;;2.33;;
65244;SDS011;51846;48.692;2.382;2022-09-13T07:56:13;6.95;;;2.58;;
65244;SDS011;51846;48.692;2.382;2022-09-13T07:58:41;10.35;;;2.45;;
65244;SDS011;51846;48.692;2.382;2022-09-13T08:03:39;13.80;;;2.55;;
65244;SDS011;51846;48.692;2.382;2022-09-13T08:06:05;9.10;;;2.58;;
65244;SDS011;51846;48.692;2.382;2022-09-13T08:08:31;9.32;;;2.70;;
65244;SDS011;51846;48.692;2.382;2022-09-13T08:10:58;8.23;;;2.67;;
65244;SDS011;51846;48.692;2.382;2022-09-13T08:13:25;11.63;;;2.92;;
65244;SDS011;51846;48.692;2.382;2022-09-13T08:15:50;9.15;;;2.70;;
65244;SDS011;51846;48.692;2.382;2022-09-13T08:18:16;9.45;;;2.95;;
65244;SDS011;51846;48.692;2.382;2022-09-13T08:20:42;7.38;;;2.25;;
65244;SDS011;51846;48.692;2.382;2022-09-13T08:23:08;10.55;;;2.83;;
65244;SDS011;51846;48.692;2.382;2022-09-13T08:25:35;4.07;;;2.10;;
65244;SDS011;51846;48.692;2.382;2022-09-13T08:28:04;5.82;;;2.10;;
65244;SDS011;51846;48.692;2.382;2022-09-13T08:30:34;4.45;;;2.00;;
65244;SDS011;51846;48.692;2.382;2022-09-13T08:33:02;7.45;;;2.38;;
65244;SDS011;51846;48.692;2.382;2022-09-13T08:35:28;5.05;;;1.90;;
65244;SDS011;51846;48.692;2.382;2022-09-13T08:37:55;4.88;;;1.95;;
65244;SDS011;51846;48.692;2.382;2022-09-13T08:40:21;6.40;;;1.90;;
65244;SDS011;51846;48.692;2.382;2022-09-13T08:42:53;6.45;;;2.20;;
65244;SDS011;51846;48.692;2.382;2022-09-13T08:45:26;6.25;;;2.00;;
65244;SDS011;51846;48.692;2.382;2022-09-13T08:47:53;4.93;;;1.88;;
65244;SDS011;51846;48.692;2.382;2022-09-13T08:50:22;5.13;;;1.80;;
65244;SDS011;51846;48.692;2.382;2022-09-13T08:53:11;5.47;;;2.00;;
65244;SDS011;51846;48.692;2.382;2022-09-13T08:56:05;5.30;;;1.83;;
65244;SDS011;51846;48.692;2.382;2022-09-13T09:01:37;4.53;;;2.05;;
65244;SDS011;51846;48.692;2.382;2022-09-13T09:07:02;6.00;;;1.90;;
65244;SDS011;51846;48.692;2.382;2022-09-13T09:09:58;6.00;;;2.03;;
65244;SDS011;51846;48.692;2.382;2022-09-13T09:17:57;4.88;;;1.70;;
65244;SDS011;51846;48.692;2.382;2022-09-13T09:20:44;8.77;;;1.98;;
65244;SDS011;51846;48.692;2.382;2022-09-13T09:25:45;5.72;;;1.92;;
65244;SDS011;51846;48.692;2.382;2022-09-13T09:28:11;4.95;;;1.73;;
65244;SDS011;51846;48.692;2.382;2022-09-13T09:30:50;6.47;;;1.80;;
65244;SDS011;51846;48.692;2.382;2022-09-13T09:33:23;5.72;;;1.77;;
65244;SDS011;51846;48.692;2.382;2022-09-13T09:36:05;4.43;;;2.05;;
65244;SDS011;51846;48.692;2.382;2022-09-13T09:38:39;7.95;;;1.80;;
65244;SDS011;51846;48.692;2.382;2022-09-13T09:41:14;5.15;;;1.80;;
65244;SDS011;51846;48.692;2.382;2022-09-13T09:44:37;6.57;;;1.40;;
65244;SDS011;51846;48.692;2.382;2022-09-13T09:46:40;2.85;;;1.60;;
65244;SDS011;51846;48.692;2.382;2022-09-13T09:49:14;3.67;;;1.60;;
65244;SDS011;51846;48.692;2.382;2022-09-13T09:52:05;5.70;;;1.75;;
65244;SDS011;51846;48.692;2.382;2022-09-13T09:54:33;6.28;;;2.40;;
65244;SDS011;51846;48.692;2.382;2022-09-13T09:56:59;4.50;;;1.70;;
65244;SDS011;51846;48.692;2.382;2022-09-13T09:59:26;6.22;;;1.75;;
65244;SDS011;51846;48.692;2.382;2022-09-13T10:01:53;5.88;;;1.70;;
65244;SDS011;51846;48.692;2.382;2022-09-13T10:04:21;4.15;;;1.70;;
65244;SDS011;51846;48.692;2.382;2022-09-13T10:06:47;5.72;;;1.88;;
65244;SDS011;51846;48.692;2.382;2022-09-13T10:11:49;3.95;;;1.70;;
65244;SDS011;51846;48.692;2.382;2022-09-13T10:22:23;4.72;;;1.77;;
65244;SDS011;51846;48.692;2.382;2022-09-13T10:24:49;6.20;;;2.00;;
65244;SDS011;51846;48.692;2.382;2022-09-13T10:27:33;6.50;;;1.85;;
65244;SDS011;51846;48.692;2.382;2022-09-13T10:30:02;4.13;;;1.65;;
65244;SDS011;51846;48.692;2.382;2022-09-13T10:32:30;6.68;;;1.80;;
65244;SDS011;51846;48.692;2.382;2022-09-13T10:34:58;3.28;;;1.60;;
65244;SDS011;51846;48.692;2.382;2022-09-13T10:37:33;6.75;;;1.80;;
65244;SDS011;51846;48.692;2.382;2022-09-13T10:40:00;9.00;;;1.70;;
65244;SDS011;51846;48.692;2.382;2022-09-13T10:42:28;3.38;;;1.67;;
65244;SDS011;51846;48.692;2.382;2022-09-13T10:44:59;5.32;;;2.17;;
65244;SDS011;51846;48.692;2.382;2022-09-13T10:47:29;4.95;;;1.83;;
65244;SDS011;51846;48.692;2.382;2022-09-13T10:50:09;4.45;;;1.70;;
65244;SDS011;51846;48.692;2.382;2022-09-13T10:52:43;6.80;;;1.77;;
65244;SDS011;51846;48.692;2.382;2022-09-13T10:55:17;3.78;;;1.60;;
65244;SDS011;51846;48.692;2.382;2022-09-13T10:57:49;4.38;;;1.70;;
65244;SDS011;51846;48.692;2.382;2022-09-13T11:00:18;6.53;;;1.90;;
65244;SDS011;51846;48.692;2.382;2022-09-13T11:05:23;3.22;;;1.60;;
65244;SDS011;51846;48.692;2.382;2022-09-13T11:31:16;7.25;;;1.92;;
65244;SDS011;51846;48.692;2.382;2022-09-13T11:41:40;3.97;;;1.77;;
65244;SDS011;51846;48.692;2.382;2022-09-13T11:44:25;4.68;;;1.50;;
65244;SDS011;51846;48.692;2.382;2022-09-13T11:53:04;6.80;;;1.95;;
65244;SDS011;51846;48.692;2.382;2022-09-13T11:55:49;3.90;;;1.60;;
65244;SDS011;51846;48.692;2.382;2022-09-13T11:58:30;7.57;;;1.90;;
65244;SDS011;51846;48.692;2.382;2022-09-13T12:01:04;7.25;;;1.88;;
65244;SDS011;51846;48.692;2.382;2022-09-13T12:06:35;8.43;;;2.10;;
65244;SDS011;51846;48.692;2.382;2022-09-13T12:09:11;2.83;;;1.83;;
65244;SDS011;51846;48.692;2.382;2022-09-13T12:11:38;3.08;;;1.70;;
65244;SDS011;51846;48.692;2.382;2022-09-13T12:14:16;5.28;;;1.90;;
65244;SDS011;51846;48.692;2.382;2022-09-13T12:16:47;7.03;;;1.77;;
65244;SDS011;51846;48.692;2.382;2022-09-13T12:19:22;6.20;;;1.80;;
65244;SDS011;51846;48.692;2.382;2022-09-13T12:21:52;5.72;;;1.90;;
65244;SDS011;51846;48.692;2.382;2022-09-13T12:24:29;5.53;;;1.88;;
65244;SDS011;51846;48.692;2.382;2022-09-13T12:29:55;5.63;;;1.80;;
65244;SDS011;51846;48.692;2.382;2022-09-13T12:32:27;5.50;;;1.80;;
65244;SDS011;51846;48.692;2.382;2022-09-13T12:34:57;3.22;;;1.70;;
65244;SDS011;51846;48.692;2.382;2022-09-13T12:40:44;5.18;;;2.03;;
65244;SDS011;51846;48.692;2.382;2022-09-13T12:43:25;3.75;;;1.70;;
65244;SDS011;51846;48.692;2.382;2022-09-13T12:57:27;3.90;;;2.00;;
65244;SDS011;51846;48.692;2.382;2022-09-13T12:59:59;5.70;;;2.00;;
65244;SDS011;51846;48.692;2.382;2022-09-13T13:05:30;3.80;;;1.83;;
65244;SDS011;51846;48.692;2.382;2022-09-13T13:08:03;6.32;;;2.10;;
65244;SDS011;51846;48.692;2.382;2022-09-13T13:11:09;3.67;;;2.08;;
65244;SDS011;51846;48.692;2.382;2022-09-13T13:13:37;5.30;;;2.17;;
65244;SDS011;51846;48.692;2.382;2022-09-13T13:16:19;6.85;;;2.40;;
65244;SDS011;51846;48.692;2.382;2022-09-13T13:18:52;7.38;;;2.00;;
65244;SDS011;51846;48.692;2.382;2022-09-13T13:21:25;4.82;;;2.00;;
65244;SDS011;51846;48.692;2.382;2022-09-13T13:29:19;4.40;;;1.98;;
65244;SDS011;51846;48.692;2.382;2022-09-13T13:39:40;5.05;;;1.92;;
65244;SDS011;51846;48.692;2.382;2022-09-13T13:54:58;9.75;;;2.40;;
65244;SDS011;51846;48.692;2.382;2022-09-13T14:10:24;5.15;;;2.20;;
65244;SDS011;51846;48.692;2.382;2022-09-13T14:21:17;5.03;;;2.45;;
65244;SDS011;51846;48.692;2.382;2022-09-13T14:24:12;4.43;;;1.98;;
65244;SDS011;51846;48.692;2.382;2022-09-13T14:26:45;5.88;;;2.08;;
65244;SDS011;51846;48.692;2.382;2022-09-13T14:29:14;6.13;;;2.30;;
65244;SDS011;51846;48.692;2.382;2022-09-13T14:31:44;5.75;;;2.40;;
65244;SDS011;51846;48.692;2.382;2022-09-13T14:34:33;6.03;;;2.40;;
65244;SDS011;51846;48.692;2.382;2022-09-13T14:37:02;8.75;;;2.30;;
65244;SDS011;51846;48.692;2.382;2022-09-13T14:39:30;6.20;;;2.38;;
65244;SDS011;51846;48.692;2.382;2022-09-13T14:41:59;6.88;;;2.20;;
65244;SDS011;51846;48.692;2.382;2022-09-13T14:44:36;7.65;;;2.45;;
65244;SDS011;51846;48.692;2.382;2022-09-13T14:47:06;8.25;;;2.17;;
65244;SDS011;51846;48.692;2.382;2022-09-13T14:49:39;7.85;;;2.67;;
65244;SDS011;51846;48.692;2.382;2022-09-13T14:52:09;5.60;;;2.60;;
65244;SDS011;51846;48.692;2.382;2022-09-13T14:54:44;9.13;;;2.53;;
65244;SDS011;51846;48.692;2.382;2022-09-13T14:57:34;6.80;;;2.40;;
65244;SDS011;51846;48.692;2.382;2022-09-13T15:00:15;4.88;;;2.15;;
65244;SDS011;51846;48.692;2.382;2022-09-13T15:02:55;7.45;;;2.65;;
65244;SDS011;51846;48.692;2.382;2022-09-13T15:05:27;7.10;;;2.53;;
65244;SDS011;51846;48.692;2.382;2022-09-13T15:07:56;6.30;;;2.45;;
65244;SDS011;51846;48.692;2.382;2022-09-13T15:15:31;8.13;;;2.53;;
65244;SDS011;51846;48.692;2.382;2022-09-13T15:26:18;13.00;;;3.00;;
65244;SDS011;51846;48.692;2.382;2022-09-13T15:28:48;6.93;;;2.90;;
65244;SDS011;51846;48.692;2.382;2022-09-13T15:31:27;5.93;;;2.65;;
65244;SDS011;51846;48.692;2.382;2022-09-13T15:34:09;8.18;;;2.88;;
65244;SDS011;51846;48.692;2.382;2022-09-13T15:36:40;10.50;;;3.53;;
65244;SDS011;51846;48.692;2.382;2022-09-13T15:41:34;8.38;;;2.80;;
65244;SDS011;51846;48.692;2.382;2022-09-13T15:44:02;7.80;;;2.45;;
65244;SDS011;51846;48.692;2.382;2022-09-13T15:46:29;6.43;;;2.80;;
65244;SDS011;51846;48.692;2.382;2022-09-13T15:48:56;6.85;;;2.53;;
65244;SDS011;51846;48.692;2.382;2022-09-13T15:51:23;5.90;;;2.53;;
65244;SDS011;51846;48.692;2.382;2022-09-13T15:53:49;7.68;;;2.75;;
65244;SDS011;51846;48.692;2.382;2022-09-13T15:56:17;7.43;;;2.40;;
65244;SDS011;51846;48.692;2.382;2022-09-13T15:58:45;4.93;;;2.55;;
65244;SDS011;51846;48.692;2.382;2022-09-13T16:01:12;7.07;;;2.80;;
65244;SDS011;51846;48.692;2.382;2022-09-13T16:03:38;8.43;;;2.95;;
65244;SDS011;51846;48.692;2.382;2022-09-13T16:06:04;7.47;;;2.83;;
65244;SDS011;51846;48.692;2.382;2022-09-13T16:08:32;7.72;;;2.60;;
65244;SDS011;51846;48.692;2.382;2022-09-13T16:10:58;6.10;;;2.50;;
65244;SDS011;51846;48.692;2.382;2022-09-13T16:13:23;5.13;;;2.47;;
65244;SDS011;51846;48.692;2.382;2022-09-13T16:15:49;8.40;;;2.47;;
65244;SDS011;51846;48.692;2.382;2022-09-13T16:18:14;4.68;;;2.38;;
65244;SDS011;51846;48.692;2.382;2022-09-13T16:20:41;9.13;;;2.67;;
65244;SDS011;51846;48.692;2.382;2022-09-13T16:23:07;6.18;;;2.60;;
65244;SDS011;51846;48.692;2.382;2022-09-13T16:25:33;5.45;;;2.40;;
65244;SDS011;51846;48.692;2.382;2022-09-13T16:27:59;7.63;;;2.78;;
65244;SDS011;51846;48.692;2.382;2022-09-13T16:30:26;8.88;;;2.40;;
65244;SDS011;51846;48.692;2.382;2022-09-13T16:32:54;8.38;;;2.92;;
65244;SDS011;51846;48.692;2.382;2022-09-13T16:35:20;9.38;;;2.60;;
65244;SDS011;51846;48.692;2.382;2022-09-13T16:37:45;6.47;;;2.60;;
65244;SDS011;51846;48.692;2.382;2022-09-13T16:40:15;8.45;;;2.65;;
65244;SDS011;51846;48.692;2.382;2022-09-13T16:42:41;10.68;;;2.95;;
65244;SDS011;51846;48.692;2.382;2022-09-13T16:45:06;6.60;;;2.67;;
65244;SDS011;51846;48.692;2.382;2022-09-13T16:47:32;5.22;;;2.50;;
65244;SDS011;51846;48.692;2.382;2022-09-13T16:49:58;7.65;;;2.45;;
65244;SDS011;51846;48.692;2.382;2022-09-13T16:52:24;7.75;;;2.70;;
65244;SDS011;51846;48.692;2.382;2022-09-13T16:54:50;10.20;;;3.03;;
65244;SDS011;51846;48.692;2.382;2022-09-13T16:57:16;8.43;;;2.40;;
65244;SDS011;51846;48.692;2.382;2022-09-13T16:59:42;9.75;;;2.92;;
65244;SDS011;51846;48.692;2.382;2022-09-13T17:02:10;9.65;;;2.70;;
65244;SDS011;51846;48.692;2.382;2022-09-13T17:04:36;5.82;;;2.58;;
65244;SDS011;51846;48.692;2.382;2022-09-13T17:07:01;8.65;;;3.10;;
65244;SDS011;51846;48.692;2.382;2022-09-13T17:09:29;7.78;;;2.80;;
65244;SDS011;51846;48.692;2.382;2022-09-13T17:11:54;6.85;;;2.70;;
65244;SDS011;51846;48.692;2.382;2022-09-13T17:14:20;8.05;;;2.72;;
65244;SDS011;51846;48.692;2.382;2022-09-13T17:16:49;7.78;;;2.80;;
65244;SDS011;51846;48.692;2.382;2022-09-13T17:19:18;6.75;;;2.70;;
65244;SDS011;51846;48.692;2.382;2022-09-13T17:21:45;7.30;;;2.80;;
65244;SDS011;51846;48.692;2.382;2022-09-13T17:24:11;6.80;;;2.60;;
65244;SDS011;51846;48.692;2.382;2022-09-13T17:26:37;7.05;;;2.63;;
65244;SDS011;51846;48.692;2.382;2022-09-13T17:29:03;6.93;;;2.83;;
65244;SDS011;51846;48.692;2.382;2022-09-13T17:31:28;7.50;;;2.95;;
65244;SDS011;51846;48.692;2.382;2022-09-13T17:33:54;7.18;;;2.70;;
65244;SDS011;51846;48.692;2.382;2022-09-13T17:36:19;11.02;;;3.00;;
65244;SDS011;51846;48.692;2.382;2022-09-13T17:38:45;9.00;;;3.20;;
65244;SDS011;51846;48.692;2.382;2022-09-13T17:41:14;7.78;;;2.72;;
65244;SDS011;51846;48.692;2.382;2022-09-13T17:43:42;7.28;;;2.67;;
65244;SDS011;51846;48.692;2.382;2022-09-13T17:46:12;8.13;;;2.92;;
65244;SDS011;51846;48.692;2.382;2022-09-13T17:48:39;7.13;;;3.03;;
65244;SDS011;51846;48.692;2.382;2022-09-13T17:51:09;11.52;;;3.50;;
65244;SDS011;51846;48.692;2.382;2022-09-13T17:53:39;12.10;;;3.17;;
65244;SDS011;51846;48.692;2.382;2022-09-13T17:56:22;35.95;;;4.30;;
65244;SDS011;51846;48.692;2.382;2022-09-13T18:01:43;113.97;;;6.93;;
65244;SDS011;51846;48.692;2.382;2022-09-13T18:04:10;50.08;;;5.13;;
65244;SDS011;51846;48.692;2.382;2022-09-13T18:06:37;42.15;;;5.15;;
65244;SDS011;51846;48.692;2.382;2022-09-13T18:09:10;32.38;;;4.72;;
65244;SDS011;51846;48.692;2.382;2022-09-13T18:11:36;32.42;;;5.15;;
65244;SDS011;51846;48.692;2.382;2022-09-13T18:14:02;20.73;;;3.90;;
65244;SDS011;51846;48.692;2.382;2022-09-13T18:16:28;18.25;;;3.78;;
65244;SDS011;51846;48.692;2.382;2022-09-13T18:18:54;11.55;;;3.65;;
65244;SDS011;51846;48.692;2.382;2022-09-13T18:21:21;16.85;;;3.75;;
65244;SDS011;51846;48.692;2.382;2022-09-13T18:23:50;8.50;;;3.70;;
65244;SDS011;51846;48.692;2.382;2022-09-13T18:26:17;9.68;;;3.42;;
65244;SDS011;51846;48.692;2.382;2022-09-13T18:28:45;10.00;;;3.70;;
65244;SDS011;51846;48.692;2.382;2022-09-13T18:31:15;12.48;;;3.72;;
65244;SDS011;51846;48.692;2.382;2022-09-13T18:33:42;11.15;;;3.88;;
65244;SDS011;51846;48.692;2.382;2022-09-13T18:36:09;29.60;;;4.13;;
65244;SDS011;51846;48.692;2.382;2022-09-13T18:38:37;14.55;;;3.97;;
65244;SDS011;51846;48.692;2.382;2022-09-13T18:41:05;25.83;;;5.70;;
65244;SDS011;51846;48.692;2.382;2022-09-13T18:43:31;24.92;;;4.28;;
65244;SDS011;51846;48.692;2.382;2022-09-13T18:45:58;23.52;;;4.57;;
65244;SDS011;51846;48.692;2.382;2022-09-13T18:48:27;30.00;;;4.57;;
65244;SDS011;51846;48.692;2.382;2022-09-13T18:50:54;20.10;;;4.93;;
65244;SDS011;51846;48.692;2.382;2022-09-13T18:53:19;19.27;;;4.50;;